sensor_id;sensor_type;location;lat;lon;timestamp;pressure;altitude;pressure_sealevel;temperature;humidity
77212;BME280;66206;0.000;0.000;2023-04-24T00:00:09;96835.88;;;23.26;30.61
77212;BME280;66206;0.000;0.000;2023-04-24T00:02:36;96843.14;;;23.22;30.70
77212;BME280;66206;0.000;0.000;2023-04-24T00:05:03;96846.83;;;23.18;30.72
77212;BME280;66206;0.000;0.000;2023-04-24T00:07:29;96847.35;;;23.05;30.68
77212;BME280;66206;0.000;0.000;2023-04-24T00:09:56;96847.34;;;23.08;30.75
77212;BME280;66206;0.000;0.000;2023-04-24T00:12:23;96840.30;;;23.07;30.74
77212;BME280;66206;0.000;0.000;2023-04-24T00:14:50;96839.50;;;23.05;30.78
77212;BME280;66206;0.000;0.000;2023-04-24T00:17:17;96839.56;;;23.11;30.77
77212;BME280;66206;0.000;0.000;2023-04-24T00:19:43;96838.06;;;23.18;30.72
77212;BME280;66206;0.000;0.000;2023-04-24T00:22:10;96834.88;;;23.13;30.69
77212;BME280;66206;0.000;0.000;2023-04-24T00:24:37;96833.49;;;22.96;30.77
77212;BME280;66206;0.000;0.000;2023-04-24T00:27:03;96838.21;;;23.10;30.71
77212;BME280;66206;0.000;0.000;2023-04-24T00:29:30;96845.63;;;23.08;30.63
77212;BME280;66206;0.000;0.000;2023-04-24T00:31:56;96848.43;;;23.12;30.70
77212;BME280;66206;0.000;0.000;2023-04-24T00:34:23;96848.90;;;23.01;30.70
77212;BME280;66206;0.000;0.000;2023-04-24T00:36:49;96845.75;;;23.03;30.76
77212;BME280;66206;0.000;0.000;2023-04-24T00:39:16;96843.60;;;23.12;30.68
77212;BME280;66206;0.000;0.000;2023-04-24T00:41:42;96836.68;;;23.10;30.69
77212;BME280;66206;0.000;0.000;2023-04-24T00:44:09;96837.70;;;23.07;30.76
77212;BME280;66206;0.000;0.000;2023-04-24T00:46:35;96839.85;;;23.01;30.74
77212;BME280;66206;0.000;0.000;2023-04-24T00:49:02;96831.88;;;23.04;30.80
77212;BME280;66206;0.000;0.000;2023-04-24T00:51:29;96827.49;;;23.10;30.79
77212;BME280;66206;0.000;0.000;2023-04-24T00:53:55;96819.97;;;23.05;30.76
77212;BME280;66206;0.000;0.000;2023-04-24T00:56:22;96817.63;;;23.10;30.69
77212;BME280;66206;0.000;0.000;2023-04-24T00:58:48;96822.49;;;22.93;30.81
77212;BME280;66206;0.000;0.000;2023-04-24T01:01:15;96823.27;;;23.09;30.81
77212;BME280;66206;0.000;0.000;2023-04-24T01:03:42;96820.39;;;23.12;30.67
77212;BME280;66206;0.000;0.000;2023-04-24T01:06:08;96820.45;;;22.91;30.82
77212;BME280;66206;0.000;0.000;2023-04-24T01:08:35;96825.07;;;22.97;30.76
77212;BME280;66206;0.000;0.000;2023-04-24T01:11:03;96825.01;;;22.94;30.76
77212;BME280;66206;0.000;0.000;2023-04-24T01:13:30;96827.79;;;23.06;30.79
77212;BME280;66206;0.000;0.000;2023-04-24T01:15:57;96827.27;;;22.90;30.82
77212;BME280;66206;0.000;0.000;2023-04-24T01:18:24;96824.69;;;22.89;30.84
77212;BME280;66206;0.000;0.000;2023-04-24T01:20:51;96820.79;;;23.00;30.69
77212;BME280;66206;0.000;0.000;2023-04-24T01:23:19;96820.54;;;22.92;30.85
77212;BME280;66206;0.000;0.000;2023-04-24T01:25:45;96822.07;;;22.87;30.83
77212;BME280;66206;0.000;0.000;2023-04-24T01:28:12;96828.88;;;23.07;30.76
77212;BME280;66206;0.000;0.000;2023-04-24T01:30:39;96834.53;;;22.89;30.86
77212;BME280;66206;0.000;0.000;2023-04-24T01:33:06;96834.36;;;23.03;30.82
77212;BME280;66206;0.000;0.000;2023-04-24T01:35:33;96828.70;;;22.91;30.76
77212;BME280;66206;0.000;0.000;2023-04-24T01:37:59;96827.72;;;22.97;30.73
77212;BME280;66206;0.000;0.000;2023-04-24T01:40:26;96827.58;;;22.96;30.86
77212;BME280;66206;0.000;0.000;2023-04-24T01:42:52;96826.38;;;22.98;30.80
77212;BME280;66206;0.000;0.000;2023-04-24T01:45:19;96830.55;;;23.02;30.82
77212;BME280;66206;0.000;0.000;2023-04-24T01:47:46;96832.86;;;22.85;30.86
77212;BME280;66206;0.000;0.000;2023-04-24T01:50:13;96831.14;;;23.05;30.79
77212;BME280;66206;0.000;0.000;2023-04-24T01:52:39;96830.10;;;22.88;30.80
77212;BME280;66206;0.000;0.000;2023-04-24T01:55:06;96828.81;;;22.83;30.87
77212;BME280;66206;0.000;0.000;2023-04-24T01:57:33;96827.58;;;22.92;30.80
77212;BME280;66206;0.000;0.000;2023-04-24T02:00:00;96823.92;;;22.60;31.04
77212;BME280;66206;0.000;0.000;2023-04-24T02:02:26;96822.13;;;22.88;30.96
77212;BME280;66206;0.000;0.000;2023-04-24T02:04:53;96815.57;;;22.90;30.83
77212;BME280;66206;0.000;0.000;2023-04-24T02:07:20;96813.75;;;22.99;30.79
77212;BME280;66206;0.000;0.000;2023-04-24T02:09:46;96811.12;;;22.94;30.83
77212;BME280;66206;0.000;0.000;2023-04-24T02:12:13;96802.57;;;23.05;30.76
77212;BME280;66206;0.000;0.000;2023-04-24T02:14:40;96798.10;;;22.93;30.71
77212;BME280;66206;0.000;0.000;2023-04-24T02:17:06;96794.56;;;22.81;30.88
77212;BME280;66206;0.000;0.000;2023-04-24T02:19:33;96792.69;;;22.92;30.89
77212;BME280;66206;0.000;0.000;2023-04-24T02:21:59;96790.00;;;22.91;30.83
77212;BME280;66206;0.000;0.000;2023-04-24T02:24:26;96789.93;;;22.89;30.86
77212;BME280;66206;0.000;0.000;2023-04-24T02:26:53;96789.59;;;23.01;30.83
77212;BME280;66206;0.000;0.000;2023-04-24T02:29:19;96785.88;;;22.89;30.84
77212;BME280;66206;0.000;0.000;2023-04-24T02:31:46;96788.58;;;22.93;30.88
77212;BME280;66206;0.000;0.000;2023-04-24T02:34:12;96790.92;;;22.80;30.80
77212;BME280;66206;0.000;0.000;2023-04-24T02:36:39;96787.26;;;23.00;30.74
77212;BME280;66206;0.000;0.000;2023-04-24T02:39:05;96788.36;;;22.80;30.84
77212;BME280;66206;0.000;0.000;2023-04-24T02:41:32;96787.94;;;22.93;30.89
77212;BME280;66206;0.000;0.000;2023-04-24T02:43:59;96787.41;;;22.82;30.86
77212;BME280;66206;0.000;0.000;2023-04-24T02:46:25;96789.94;;;22.78;30.97
77212;BME280;66206;0.000;0.000;2023-04-24T02:48:52;96788.46;;;22.88;30.86
77212;BME280;66206;0.000;0.000;2023-04-24T02:51:19;96786.31;;;22.84;30.95
77212;BME280;66206;0.000;0.000;2023-04-24T02:53:45;96782.73;;;22.81;30.98
77212;BME280;66206;0.000;0.000;2023-04-24T02:56:12;96786.26;;;22.93;30.89
77212;BME280;66206;0.000;0.000;2023-04-24T02:58:38;96786.53;;;22.75;31.11
77212;BME280;66206;0.000;0.000;2023-04-24T03:01:05;96787.94;;;22.88;30.94
77212;BME280;66206;0.000;0.000;2023-04-24T03:03:31;96788.21;;;22.73;31.04
77212;BME280;66206;0.000;0.000;2023-04-24T03:05:58;96787.28;;;22.80;30.86
77212;BME280;66206;0.000;0.000;2023-04-24T03:08:25;96782.26;;;22.70;30.96
77212;BME280;66206;0.000;0.000;2023-04-24T03:10:51;96781.88;;;22.70;30.97
77212;BME280;66206;0.000;0.000;2023-04-24T03:13:18;96781.10;;;22.92;30.89
77212;BME280;66206;0.000;0.000;2023-04-24T03:15:44;96782.59;;;22.79;30.90
77212;BME280;66206;0.000;0.000;2023-04-24T03:18:11;96780.89;;;22.90;30.88
77212;BME280;66206;0.000;0.000;2023-04-24T03:20:38;96775.47;;;22.71;31.00
77212;BME280;66206;0.000;0.000;2023-04-24T03:23:04;96775.08;;;22.79;30.97
77212;BME280;66206;0.000;0.000;2023-04-24T03:25:31;96775.74;;;22.57;31.05
77212;BME280;66206;0.000;0.000;2023-04-24T03:27:57;96775.97;;;22.76;30.98
77212;BME280;66206;0.000;0.000;2023-04-24T03:30:24;96773.76;;;22.77;30.89
77212;BME280;66206;0.000;0.000;2023-04-24T03:32:51;96775.32;;;22.74;30.86
77212;BME280;66206;0.000;0.000;2023-04-24T03:35:17;96781.75;;;22.86;30.91
77212;BME280;66206;0.000;0.000;2023-04-24T03:37:44;96780.65;;;22.75;30.90
77212;BME280;66206;0.000;0.000;2023-04-24T03:40:11;96777.31;;;22.80;30.88
77212;BME280;66206;0.000;0.000;2023-04-24T03:42:37;96781.52;;;22.73;30.90
77212;BME280;66206;0.000;0.000;2023-04-24T03:45:04;96782.28;;;22.74;30.94
77212;BME280;66206;0.000;0.000;2023-04-24T03:47:31;96780.59;;;22.76;30.93
77212;BME280;66206;0.000;0.000;2023-04-24T03:49:57;96779.06;;;22.71;30.96
77212;BME280;66206;0.000;0.000;2023-04-24T03:52:24;96775.35;;;22.74;30.97
77212;BME280;66206;0.000;0.000;2023-04-24T03:54:51;96773.29;;;22.73;30.92
77212;BME280;66206;0.000;0.000;2023-04-24T03:57:17;96787.69;;;22.82;30.85
77212;BME280;66206;0.000;0.000;2023-04-24T03:59:44;96787.78;;;22.78;30.93
77212;BME280;66206;0.000;0.000;2023-04-24T04:02:10;96790.73;;;22.79;30.93
77212;BME280;66206;0.000;0.000;2023-04-24T04:04:37;96791.76;;;22.69;30.98
77212;BME280;66206;0.000;0.000;2023-04-24T04:07:03;96794.46;;;22.85;30.94
77212;BME280;66206;0.000;0.000;2023-04-24T04:09:30;96796.88;;;22.72;30.94
77212;BME280;66206;0.000;0.000;2023-04-24T04:11:57;96792.94;;;22.79;30.90
77212;BME280;66206;0.000;0.000;2023-04-24T04:14:23;96794.84;;;22.72;30.90
77212;BME280;66206;0.000;0.000;2023-04-24T04:16:50;96794.06;;;22.68;30.93
77212;BME280;66206;0.000;0.000;2023-04-24T04:19:17;96794.33;;;22.59;31.03
77212;BME280;66206;0.000;0.000;2023-04-24T04:21:43;96792.95;;;22.73;30.96
77212;BME280;66206;0.000;0.000;2023-04-24T04:24:10;96791.38;;;22.88;31.02
77212;BME280;66206;0.000;0.000;2023-04-24T04:26:37;96792.83;;;22.57;31.06
77212;BME280;66206;0.000;0.000;2023-04-24T04:29:03;96791.23;;;22.65;31.03
77212;BME280;66206;0.000;0.000;2023-04-24T04:31:30;96787.48;;;22.77;30.94
77212;BME280;66206;0.000;0.000;2023-04-24T04:33:57;96788.69;;;22.80;30.92
77212;BME280;66206;0.000;0.000;2023-04-24T04:36:23;96790.72;;;22.76;30.85
77212;BME280;66206;0.000;0.000;2023-04-24T04:38:50;96788.72;;;22.55;31.11
77212;BME280;66206;0.000;0.000;2023-04-24T04:41:16;96787.29;;;22.65;31.05
77212;BME280;66206;0.000;0.000;2023-04-24T04:43:43;96789.48;;;22.78;30.97
77212;BME280;66206;0.000;0.000;2023-04-24T04:46:10;96788.84;;;22.80;30.97
77212;BME280;66206;0.000;0.000;2023-04-24T04:48:36;96787.32;;;22.77;30.97
77212;BME280;66206;0.000;0.000;2023-04-24T04:51:03;96789.22;;;22.79;30.87
77212;BME280;66206;0.000;0.000;2023-04-24T04:53:29;96786.23;;;22.63;30.95
77212;BME280;66206;0.000;0.000;2023-04-24T04:55:56;96789.78;;;22.72;30.95
77212;BME280;66206;0.000;0.000;2023-04-24T04:58:22;96791.35;;;22.67;30.95
77212;BME280;66206;0.000;0.000;2023-04-24T05:00:49;96791.30;;;22.68;30.96
77212;BME280;66206;0.000;0.000;2023-04-24T05:03:16;96790.56;;;22.66;31.05
77212;BME280;66206;0.000;0.000;2023-04-24T05:05:42;96795.74;;;22.67;30.98
77212;BME280;66206;0.000;0.000;2023-04-24T05:08:09;96802.73;;;22.72;30.96
77212;BME280;66206;0.000;0.000;2023-04-24T05:10:35;96804.87;;;22.71;30.91
77212;BME280;66206;0.000;0.000;2023-04-24T05:13:02;96805.40;;;22.42;31.15
77212;BME280;66206;0.000;0.000;2023-04-24T05:15:29;96811.82;;;22.48;30.95
77212;BME280;66206;0.000;0.000;2023-04-24T05:17:56;96808.92;;;22.89;30.92
77212;BME280;66206;0.000;0.000;2023-04-24T05:20:22;96812.04;;;22.66;30.95
77212;BME280;66206;0.000;0.000;2023-04-24T05:22:49;96815.83;;;22.64;30.96
77212;BME280;66206;0.000;0.000;2023-04-24T05:25:15;96823.76;;;22.75;31.04
77212;BME280;66206;0.000;0.000;2023-04-24T05:27:42;96824.65;;;22.79;31.08
77212;BME280;66206;0.000;0.000;2023-04-24T05:30:09;96825.25;;;22.72;30.99
77212;BME280;66206;0.000;0.000;2023-04-24T05:32:35;96826.59;;;22.65;31.11
77212;BME280;66206;0.000;0.000;2023-04-24T05:35:02;96831.01;;;22.63;31.10
77212;BME280;66206;0.000;0.000;2023-04-24T05:37:29;96834.38;;;22.55;31.09
77212;BME280;66206;0.000;0.000;2023-04-24T05:39:55;96839.29;;;22.72;30.93
77212;BME280;66206;0.000;0.000;2023-04-24T05:42:22;96841.97;;;22.53;31.22
77212;BME280;66206;0.000;0.000;2023-04-24T05:44:48;96840.66;;;22.83;31.13
77212;BME280;66206;0.000;0.000;2023-04-24T05:47:15;96847.09;;;22.61;31.13
77212;BME280;66206;0.000;0.000;2023-04-24T05:49:41;96841.11;;;22.69;31.21
77212;BME280;66206;0.000;0.000;2023-04-24T05:52:08;96844.17;;;22.64;31.12
77212;BME280;66206;0.000;0.000;2023-04-24T05:54:35;96842.86;;;22.68;31.14
77212;BME280;66206;0.000;0.000;2023-04-24T05:57:01;96845.35;;;22.67;31.11
77212;BME280;66206;0.000;0.000;2023-04-24T05:59:28;96849.54;;;22.65;31.22
77212;BME280;66206;0.000;0.000;2023-04-24T06:01:54;96850.45;;;22.70;31.15
77212;BME280;66206;0.000;0.000;2023-04-24T06:04:21;96852.50;;;22.64;31.16
77212;BME280;66206;0.000;0.000;2023-04-24T06:06:47;96851.03;;;22.64;31.18
77212;BME280;66206;0.000;0.000;2023-04-24T06:09:14;96850.27;;;22.60;31.20
77212;BME280;66206;0.000;0.000;2023-04-24T06:11:40;96847.12;;;22.57;31.18
77212;BME280;66206;0.000;0.000;2023-04-24T06:14:07;96850.45;;;22.59;31.16
77212;BME280;66206;0.000;0.000;2023-04-24T06:16:33;96850.49;;;22.71;31.01
77212;BME280;66206;0.000;0.000;2023-04-24T06:19:00;96851.64;;;22.75;31.05
77212;BME280;66206;0.000;0.000;2023-04-24T06:21:27;96857.62;;;22.60;31.16
77212;BME280;66206;0.000;0.000;2023-04-24T06:23:53;96855.11;;;22.66;31.03
77212;BME280;66206;0.000;0.000;2023-04-24T06:26:20;96858.91;;;22.52;31.18
77212;BME280;66206;0.000;0.000;2023-04-24T06:28:47;96858.71;;;22.58;31.19
77212;BME280;66206;0.000;0.000;2023-04-24T06:31:13;96859.27;;;22.57;31.15
77212;BME280;66206;0.000;0.000;2023-04-24T06:33:40;96869.58;;;22.60;31.15
77212;BME280;66206;0.000;0.000;2023-04-24T06:36:06;96870.15;;;22.71;31.14
77212;BME280;66206;0.000;0.000;2023-04-24T06:38:33;96874.68;;;22.60;31.09
77212;BME280;66206;0.000;0.000;2023-04-24T06:41:00;96882.44;;;22.59;31.18
77212;BME280;66206;0.000;0.000;2023-04-24T06:43:26;96894.06;;;22.66;31.11
77212;BME280;66206;0.000;0.000;2023-04-24T06:45:53;96888.39;;;22.70;31.10
77212;BME280;66206;0.000;0.000;2023-04-24T06:48:19;96873.00;;;22.53;31.20
77212;BME280;66206;0.000;0.000;2023-04-24T06:50:46;96880.02;;;22.82;31.09
77212;BME280;66206;0.000;0.000;2023-04-24T06:53:12;96886.95;;;22.65;31.10
77212;BME280;66206;0.000;0.000;2023-04-24T06:55:39;96888.85;;;22.64;31.05
77212;BME280;66206;0.000;0.000;2023-04-24T06:58:05;96891.46;;;22.54;31.17
77212;BME280;66206;0.000;0.000;2023-04-24T07:00:32;96895.24;;;22.63;31.02
77212;BME280;66206;0.000;0.000;2023-04-24T07:02:58;96898.73;;;22.69;30.99
77212;BME280;66206;0.000;0.000;2023-04-24T07:05:25;96901.49;;;22.60;31.11
77212;BME280;66206;0.000;0.000;2023-04-24T07:07:52;96898.84;;;22.71;31.07
77212;BME280;66206;0.000;0.000;2023-04-24T07:10:19;96902.84;;;22.85;31.14
77212;BME280;66206;0.000;0.000;2023-04-24T07:12:47;96902.10;;;22.57;31.55
77212;BME280;66206;0.000;0.000;2023-04-24T07:15:14;96911.23;;;23.08;31.05
77212;BME280;66206;0.000;0.000;2023-04-24T07:17:42;96912.00;;;23.18;31.00
77212;BME280;66206;0.000;0.000;2023-04-24T07:20:10;96916.64;;;22.98;30.98
77212;BME280;66206;0.000;0.000;2023-04-24T07:22:37;96918.64;;;23.23;30.87
77212;BME280;66206;0.000;0.000;2023-04-24T07:25:06;96916.24;;;22.85;31.38
77212;BME280;66206;0.000;0.000;2023-04-24T07:27:33;96916.11;;;23.15;31.10
77212;BME280;66206;0.000;0.000;2023-04-24T07:30:00;96917.28;;;23.31;31.16
77212;BME280;66206;0.000;0.000;2023-04-24T07:32:27;96924.72;;;22.73;31.65
77212;BME280;66206;0.000;0.000;2023-04-24T07:34:55;96927.40;;;23.38;31.13
77212;BME280;66206;0.000;0.000;2023-04-24T07:37:22;96940.15;;;23.38;31.10
77212;BME280;66206;0.000;0.000;2023-04-24T07:39:49;96927.50;;;23.41;30.92
77212;BME280;66206;0.000;0.000;2023-04-24T07:42:16;96930.02;;;23.49;30.85
77212;BME280;66206;0.000;0.000;2023-04-24T07:44:43;96936.04;;;23.58;30.81
77212;BME280;66206;0.000;0.000;2023-04-24T07:47:11;96939.46;;;23.58;30.82
77212;BME280;66206;0.000;0.000;2023-04-24T07:49:39;96939.51;;;23.74;30.65
77212;BME280;66206;0.000;0.000;2023-04-24T07:52:06;96943.78;;;23.77;30.69
77212;BME280;66206;0.000;0.000;2023-04-24T07:54:34;96944.31;;;23.86;30.75
77212;BME280;66206;0.000;0.000;2023-04-24T07:57:01;96950.46;;;23.46;30.82
77212;BME280;66206;0.000;0.000;2023-04-24T07:59:28;96949.24;;;23.66;30.71
77212;BME280;66206;0.000;0.000;2023-04-24T08:01:56;96946.75;;;23.49;30.90
77212;BME280;66206;0.000;0.000;2023-04-24T08:04:24;96950.39;;;23.68;30.69
77212;BME280;66206;0.000;0.000;2023-04-24T08:06:52;96945.67;;;23.91;30.49
77212;BME280;66206;0.000;0.000;2023-04-24T08:09:20;96948.08;;;23.96;30.47
77212;BME280;66206;0.000;0.000;2023-04-24T08:11:47;96949.67;;;24.09;30.22
77212;BME280;66206;0.000;0.000;2023-04-24T08:14:15;96946.49;;;23.88;30.38
77212;BME280;66206;0.000;0.000;2023-04-24T08:16:42;96950.01;;;23.40;30.98
77212;BME280;66206;0.000;0.000;2023-04-24T08:19:10;96952.12;;;23.30;30.98
77212;BME280;66206;0.000;0.000;2023-04-24T08:21:37;96949.73;;;23.81;30.72
77212;BME280;66206;0.000;0.000;2023-04-24T08:24:05;96958.18;;;23.74;30.51
77212;BME280;66206;0.000;0.000;2023-04-24T08:26:32;96965.29;;;23.58;30.44
77212;BME280;66206;0.000;0.000;2023-04-24T08:28:59;96970.37;;;23.75;30.39
77212;BME280;66206;0.000;0.000;2023-04-24T08:31:27;96971.20;;;23.69;30.52
77212;BME280;66206;0.000;0.000;2023-04-24T08:33:54;96970.34;;;23.80;30.46
77212;BME280;66206;0.000;0.000;2023-04-24T08:36:21;96983.12;;;23.38;31.12
77212;BME280;66206;0.000;0.000;2023-04-24T08:38:48;96977.13;;;24.05;30.19
77212;BME280;66206;0.000;0.000;2023-04-24T08:41:16;96981.94;;;23.91;30.25
77212;BME280;66206;0.000;0.000;2023-04-24T08:43:46;96983.89;;;23.49;30.60
77212;BME280;66206;0.000;0.000;2023-04-24T08:46:13;96982.65;;;24.02;30.17
77212;BME280;66206;0.000;0.000;2023-04-24T08:48:41;96989.87;;;23.77;30.82
77212;BME280;66206;0.000;0.000;2023-04-24T08:51:08;96991.19;;;23.94;30.45
77212;BME280;66206;0.000;0.000;2023-04-24T08:53:36;96990.77;;;23.52;31.16
77212;BME280;66206;0.000;0.000;2023-04-24T08:56:03;96991.76;;;23.41;31.20
77212;BME280;66206;0.000;0.000;2023-04-24T08:58:31;96983.47;;;23.62;30.98
77212;BME280;66206;0.000;0.000;2023-04-24T09:01:00;96981.44;;;24.01;30.51
77212;BME280;66206;0.000;0.000;2023-04-24T09:03:29;96984.35;;;23.73;30.72
77212;BME280;66206;0.000;0.000;2023-04-24T09:05:56;96985.57;;;23.99;30.42
77212;BME280;66206;0.000;0.000;2023-04-24T09:08:24;96978.40;;;23.91;30.48
77212;BME280;66206;0.000;0.000;2023-04-24T09:10:52;96978.93;;;23.82;30.60
77212;BME280;66206;0.000;0.000;2023-04-24T09:13:22;96979.43;;;24.15;30.24
77212;BME280;66206;0.000;0.000;2023-04-24T09:15:51;96976.80;;;24.20;30.13
77212;BME280;66206;0.000;0.000;2023-04-24T09:18:19;96979.56;;;24.12;30.05
77212;BME280;66206;0.000;0.000;2023-04-24T09:21:02;96978.50;;;24.01;30.35
77212;BME280;66206;0.000;0.000;2023-04-24T09:23:18;96977.74;;;23.73;30.51
77212;BME280;66206;0.000;0.000;2023-04-24T09:25:45;96970.52;;;23.99;30.41
77212;BME280;66206;0.000;0.000;2023-04-24T09:28:12;96966.61;;;24.12;30.39
77212;BME280;66206;0.000;0.000;2023-04-24T09:30:43;96959.42;;;24.35;30.21
77212;BME280;66206;0.000;0.000;2023-04-24T09:33:13;96967.81;;;24.14;30.16
77212;BME280;66206;0.000;0.000;2023-04-24T09:35:35;96958.83;;;24.22;30.16
77212;BME280;66206;0.000;0.000;2023-04-24T09:38:02;96970.64;;;24.45;30.13
77212;BME280;66206;0.000;0.000;2023-04-24T09:40:29;96974.38;;;24.24;30.56
77212;BME280;66206;0.000;0.000;2023-04-24T09:42:56;96976.70;;;23.89;30.48
77212;BME280;66206;0.000;0.000;2023-04-24T09:45:26;96971.05;;;23.71;30.64
77212;BME280;66206;0.000;0.000;2023-04-24T09:47:51;96967.61;;;23.88;30.72
77212;BME280;66206;0.000;0.000;2023-04-24T09:50:19;96961.86;;;23.90;30.69
77212;BME280;66206;0.000;0.000;2023-04-24T09:52:56;96961.00;;;23.91;30.67
77212;BME280;66206;0.000;0.000;2023-04-24T09:55:16;96966.93;;;24.27;30.35
77212;BME280;66206;0.000;0.000;2023-04-24T09:57:47;96970.55;;;24.04;30.62
77212;BME280;66206;0.000;0.000;2023-04-24T10:00:04;96974.26;;;23.89;30.50
77212;BME280;66206;0.000;0.000;2023-04-24T10:02:32;96971.20;;;23.89;30.56
77212;BME280;66206;0.000;0.000;2023-04-24T10:05:00;96981.14;;;23.98;30.47
77212;BME280;66206;0.000;0.000;2023-04-24T10:07:28;96977.62;;;24.12;30.35
77212;BME280;66206;0.000;0.000;2023-04-24T10:09:55;96978.78;;;24.10;30.25
77212;BME280;66206;0.000;0.000;2023-04-24T10:12:24;96980.92;;;23.96;30.28
77212;BME280;66206;0.000;0.000;2023-04-24T10:14:52;96982.80;;;23.98;30.45
77212;BME280;66206;0.000;0.000;2023-04-24T10:17:19;96988.90;;;23.96;30.45
77212;BME280;66206;0.000;0.000;2023-04-24T10:19:47;96984.65;;;23.56;30.87
77212;BME280;66206;0.000;0.000;2023-04-24T10:22:15;96980.46;;;24.15;30.33
77212;BME280;66206;0.000;0.000;2023-04-24T10:24:42;96978.34;;;23.70;30.89
77212;BME280;66206;0.000;0.000;2023-04-24T10:27:10;96964.09;;;23.05;29.17
77212;BME280;66206;0.000;0.000;2023-04-24T10:29:38;96991.50;;;22.80;27.03
77212;BME280;66206;0.000;0.000;2023-04-24T10:32:06;96967.80;;;22.26;26.42
77212;BME280;66206;0.000;0.000;2023-04-24T10:34:33;96985.44;;;22.67;25.51
77212;BME280;66206;0.000;0.000;2023-04-24T10:37:01;96971.52;;;22.23;25.98
77212;BME280;66206;0.000;0.000;2023-04-24T10:39:29;96988.51;;;22.43;25.65
77212;BME280;66206;0.000;0.000;2023-04-24T10:41:56;96982.69;;;22.61;25.29
77212;BME280;66206;0.000;0.000;2023-04-24T10:44:24;96999.01;;;22.64;25.25
77212;BME280;66206;0.000;0.000;2023-04-24T10:46:53;97006.00;;;22.94;26.42
77212;BME280;66206;0.000;0.000;2023-04-24T10:49:28;97016.00;;;23.31;27.26
77212;BME280;66206;0.000;0.000;2023-04-24T10:51:51;97025.52;;;23.19;27.75
77212;BME280;66206;0.000;0.000;2023-04-24T10:54:23;97028.81;;;23.33;28.15
77212;BME280;66206;0.000;0.000;2023-04-24T10:56:45;97039.94;;;23.58;28.07
77212;BME280;66206;0.000;0.000;2023-04-24T10:59:13;97042.13;;;23.53;27.90
77212;BME280;66206;0.000;0.000;2023-04-24T11:01:40;97045.96;;;23.50;28.07
77212;BME280;66206;0.000;0.000;2023-04-24T11:04:08;97042.21;;;23.97;27.73
77212;BME280;66206;0.000;0.000;2023-04-24T11:06:36;97047.52;;;23.70;27.88
77212;BME280;66206;0.000;0.000;2023-04-24T11:09:05;97048.26;;;23.51;28.00
77212;BME280;66206;0.000;0.000;2023-04-24T11:11:33;97052.60;;;23.49;28.20
77212;BME280;66206;0.000;0.000;2023-04-24T11:14:01;97045.13;;;24.11;27.77
77212;BME280;66206;0.000;0.000;2023-04-24T11:16:30;97044.43;;;23.64;28.22
77212;BME280;66206;0.000;0.000;2023-04-24T11:19:00;97048.06;;;23.77;28.10
77212;BME280;66206;0.000;0.000;2023-04-24T11:21:23;97044.18;;;23.78;28.19
77212;BME280;66206;0.000;0.000;2023-04-24T11:23:50;97048.16;;;23.63;28.31
77212;BME280;66206;0.000;0.000;2023-04-24T11:26:19;97051.22;;;23.78;28.47
77212;BME280;66206;0.000;0.000;2023-04-24T11:28:46;97045.20;;;23.47;28.72
77212;BME280;66206;0.000;0.000;2023-04-24T11:31:54;97051.62;;;23.60;28.61
77212;BME280;66206;0.000;0.000;2023-04-24T11:33:34;97048.99;;;23.34;28.98
77212;BME280;66206;0.000;0.000;2023-04-24T11:36:01;97050.41;;;23.65;28.77
77212;BME280;66206;0.000;0.000;2023-04-24T11:38:29;97046.43;;;23.69;28.62
77212;BME280;66206;0.000;0.000;2023-04-24T11:40:56;97054.59;;;23.60;28.60
77212;BME280;66206;0.000;0.000;2023-04-24T11:43:23;97044.04;;;23.70;28.52
77212;BME280;66206;0.000;0.000;2023-04-24T11:45:51;97038.26;;;23.58;28.71
77212;BME280;66206;0.000;0.000;2023-04-24T11:48:19;97046.27;;;23.55;28.71
77212;BME280;66206;0.000;0.000;2023-04-24T11:50:46;97039.26;;;23.40;28.96
77212;BME280;66206;0.000;0.000;2023-04-24T11:53:14;97045.70;;;23.62;29.03
77212;BME280;66206;0.000;0.000;2023-04-24T11:55:40;97054.86;;;23.30;29.22
77212;BME280;66206;0.000;0.000;2023-04-24T11:58:07;97058.17;;;23.35;29.30
77212;BME280;66206;0.000;0.000;2023-04-24T12:00:35;97059.17;;;23.26;29.48
77212;BME280;66206;0.000;0.000;2023-04-24T12:03:04;97069.80;;;23.45;29.25
77212;BME280;66206;0.000;0.000;2023-04-24T12:05:32;97066.65;;;23.57;29.17
77212;BME280;66206;0.000;0.000;2023-04-24T12:07:59;97076.81;;;23.61;29.20
77212;BME280;66206;0.000;0.000;2023-04-24T12:10:28;97070.13;;;23.25;29.47
77212;BME280;66206;0.000;0.000;2023-04-24T12:12:57;97068.32;;;23.52;29.27
77212;BME280;66206;0.000;0.000;2023-04-24T12:15:25;97076.96;;;23.35;29.33
77212;BME280;66206;0.000;0.000;2023-04-24T12:17:53;97074.98;;;23.64;29.11
77212;BME280;66206;0.000;0.000;2023-04-24T12:20:24;97079.36;;;23.64;29.12
77212;BME280;66206;0.000;0.000;2023-04-24T12:22:48;97080.89;;;23.55;29.30
77212;BME280;66206;0.000;0.000;2023-04-24T12:25:16;97081.80;;;23.51;29.28
77212;BME280;66206;0.000;0.000;2023-04-24T12:27:43;97090.44;;;23.60;29.23
77212;BME280;66206;0.000;0.000;2023-04-24T12:30:12;97090.05;;;23.78;28.98
77212;BME280;66206;0.000;0.000;2023-04-24T12:32:43;97078.91;;;23.44;29.36
77212;BME280;66206;0.000;0.000;2023-04-24T12:35:05;97082.35;;;23.87;28.66
77212;BME280;66206;0.000;0.000;2023-04-24T12:37:33;97080.11;;;24.04;28.64
77212;BME280;66206;0.000;0.000;2023-04-24T12:40:01;97086.37;;;23.66;28.87
77212;BME280;66206;0.000;0.000;2023-04-24T12:42:29;97088.88;;;23.83;29.02
77212;BME280;66206;0.000;0.000;2023-04-24T12:44:58;97089.33;;;23.81;28.96
77212;BME280;66206;0.000;0.000;2023-04-24T12:47:26;97083.51;;;23.72;29.15
77212;BME280;66206;0.000;0.000;2023-04-24T12:49:54;97091.67;;;23.63;29.46
77212;BME280;66206;0.000;0.000;2023-04-24T12:52:21;97093.52;;;23.81;29.22
77212;BME280;66206;0.000;0.000;2023-04-24T12:54:49;97097.66;;;23.78;29.12
77212;BME280;66206;0.000;0.000;2023-04-24T12:57:16;97097.14;;;23.54;29.36
77212;BME280;66206;0.000;0.000;2023-04-24T12:59:43;97098.40;;;23.53;29.47
77212;BME280;66206;0.000;0.000;2023-04-24T13:02:11;97095.84;;;23.58;29.35
77212;BME280;66206;0.000;0.000;2023-04-24T13:04:38;97103.14;;;23.36;29.66
77212;BME280;66206;0.000;0.000;2023-04-24T13:07:06;97099.37;;;23.71;29.22